Time;durP1;ratioP1;P1;durP2;ratioP2;P2;SDS_P1;SDS_P2;PMS_P1;PMS_P2;Temp;Humidity;BMP_temperature;BMP_pressure;BME280_temperature;BME280_humidity;BME280_pressure;Samples;Min_cycle;Max_cycle;Signal;HPM_P1;HPM_P2
2021/08/01 00:01:24;;;;;;;;;5.00;5.00;;;;;;;;4668805;30;45598;-94
2021/08/01 00:03:50;;;;;;;;;5.25;4.75;;;;;;;;4693241;24;45538;-92
2021/08/01 00:06:16;;;;;;;;;5.75;5.00;;;;;;;;4686927;30;47561;-95
2021/08/01 00:08:41;;;;;;;;;5.25;3.25;;;;;;;;4690724;30;45905;-94
2021/08/01 00:11:06;;;;;;;;;9.25;5.50;;;;;;;;4696089;30;45504;-93
2021/08/01 00:13:32;;;;;;;;;5.00;5.00;;;;;;;;4685731;30;45400;-94
2021/08/01 00:15:59;;;;;;;;;6.75;5.00;;;;;;;;4698874;30;45565;-93
2021/08/01 00:18:24;;;;;;;;;5.50;5.50;;;;;;;;4703155;30;45656;-94
2021/08/01 00:20:57;;;;;;;;;5.00;5.00;;;;;;;;4682071;30;45740;-92
2021/08/01 00:23:27;;;;;;;;;6.75;5.25;;;;;;;;4687237;30;45552;-94
2021/08/01 00:25:53;;;;;;;;;4.75;4.75;;;;;;;;4698819;30;45691;-92
2021/08/01 00:28:18;;;;;;;;;6.50;4.75;;;;;;;;4696436;30;45482;-93
2021/08/01 00:30:44;;;;;;;;;4.50;4.50;;;;;;;;4687927;30;45450;-92
2021/08/01 00:33:09;;;;;;;;;5.75;5.00;;;;;;;;4704787;30;45705;-94
2021/08/01 00:35:34;;;;;;;;;6.25;5.00;;;;;;;;4692024;30;45283;-93
2021/08/01 00:38:00;;;;;;;;;5.00;5.00;;;;;;;;4701080;30;45502;-94
2021/08/01 00:40:25;;;;;;;;;7.50;5.00;;;;;;;;4685103;30;45530;-94
2021/08/01 00:42:50;;;;;;;;;6.25;5.25;;;;;;;;4702735;30;45568;-92
2021/08/01 00:45:16;;;;;;;;;3.50;3.50;;;;;;;;4690998;30;46739;-94
2021/08/01 00:47:44;;;;;;;;;7.00;4.50;;;;;;;;4685247;30;45692;-93
2021/08/01 00:50:11;;;;;;;;;6.75;6.00;;;;;;;;4721553;24;45374;-92
2021/08/01 00:52:40;;;;;;;;;5.25;5.25;;;;;;;;4718188;30;45657;-93
2021/08/01 00:55:14;;;;;;;;;6.25;6.00;;;;;;;;4705372;30;45914;-91
2021/08/01 00:57:40;;;;;;;;;6.50;5.25;;;;;;;;4694384;30;45509;-91
2021/08/01 01:03:02;;;;;;;;;8.00;5.75;;;;;;;;4718275;30;44880;-94
2021/08/01 01:05:32;;;;;;;;;7.50;6.00;;;;;;;;4714540;30;45764;-93
2021/08/01 01:08:11;;;;;;;;;6.25;6.25;;;;;;;;4724713;29;45444;-91
2021/08/01 01:10:40;;;;;;;;;8.00;8.00;;;;;;;;4714927;30;44760;-93
2021/08/01 01:13:13;;;;;;;;;5.50;5.00;;;;;;;;4725074;30;45365;-93
2021/08/01 01:15:50;;;;;;;;;6.00;5.25;;;;;;;;4694831;30;48281;-92
2021/08/01 01:18:20;;;;;;;;;8.25;6.00;;;;;;;;4705891;30;45413;-92
2021/08/01 01:20:53;;;;;;;;;7.00;7.00;;;;;;;;4701396;30;45557;-93
2021/08/01 01:23:25;;;;;;;;;7.25;5.75;;;;;;;;4694366;30;46049;-93
2021/08/01 01:26:01;;;;;;;;;6.00;5.50;;;;;;;;4709796;30;45444;-95
2021/08/01 01:28:41;;;;;;;;;7.50;6.00;;;;;;;;4699612;30;45413;-92
2021/08/01 01:31:16;;;;;;;;;8.25;6.50;;;;;;;;4699866;30;45435;-94
2021/08/01 01:33:54;;;;;;;;;7.00;5.00;;;;;;;;4701003;30;45569;-93
2021/08/01 01:36:24;;;;;;;;;5.50;5.00;;;;;;;;4711852;30;46165;-92
2021/08/01 01:38:50;;;;;;;;;5.75;5.50;;;;;;;;4697410;30;45644;-94
2021/08/01 01:41:17;;;;;;;;;5.75;4.75;;;;;;;;4709791;30;45531;-90
2021/08/01 01:43:43;;;;;;;;;5.75;5.75;;;;;;;;4688934;30;45532;-93
2021/08/01 01:46:10;;;;;;;;;5.00;5.00;;;;;;;;4692958;30;47312;-91
2021/08/01 01:48:37;;;;;;;;;4.00;4.00;;;;;;;;4696405;30;45670;-92
2021/08/01 01:51:07;;;;;;;;;7.50;5.50;;;;;;;;4694724;30;45349;-92
2021/08/01 01:53:32;;;;;;;;;7.00;5.00;;;;;;;;4692928;30;45570;-93
2021/08/01 01:55:59;;;;;;;;;5.00;5.00;;;;;;;;4707199;30;45902;-92
2021/08/01 01:58:26;;;;;;;;;5.25;4.75;;;;;;;;4712909;30;45593;-93
2021/08/01 02:00:51;;;;;;;;;4.50;4.00;;;;;;;;4709023;30;45585;-93
2021/08/01 02:03:16;;;;;;;;;6.00;4.75;;;;;;;;4703535;30;45399;-94
2021/08/01 02:05:42;;;;;;;;;6.00;4.00;;;;;;;;4704847;30;45498;-91
2021/08/01 02:08:08;;;;;;;;;7.00;5.75;;;;;;;;4699502;30;45591;-93
2021/08/01 02:10:34;;;;;;;;;5.25;4.00;;;;;;;;4713895;30;45349;-92
2021/08/01 02:13:03;;;;;;;;;7.25;5.00;;;;;;;;4699882;30;45464;-94
2021/08/01 02:15:31;;;;;;;;;6.00;4.75;;;;;;;;4702542;30;47414;-93
2021/08/01 02:18:02;;;;;;;;;5.00;5.00;;;;;;;;4703993;30;45364;-91
2021/08/01 02:20:29;;;;;;;;;5.75;5.00;;;;;;;;4704364;30;45627;-93
2021/08/01 02:22:57;;;;;;;;;6.75;5.25;;;;;;;;4691788;30;45502;-92
2021/08/01 02:25:23;;;;;;;;;3.75;3.75;;;;;;;;4703201;30;47093;-93
2021/08/01 02:27:50;;;;;;;;;4.25;4.25;;;;;;;;4695411;30;45779;-93
2021/08/01 02:30:16;;;;;;;;;5.75;4.50;;;;;;;;4708894;30;45564;-92
2021/08/01 02:32:42;;;;;;;;;3.75;3.75;;;;;;;;4708960;30;45593;-94
2021/08/01 02:35:09;;;;;;;;;5.00;5.00;;;;;;;;4714505;30;45451;-92
2021/08/01 02:37:36;;;;;;;;;4.75;4.00;;;;;;;;4687560;30;45711;-92
2021/08/01 02:40:02;;;;;;;;;7.25;5.00;;;;;;;;4711177;30;45358;-93
2021/08/01 02:42:28;;;;;;;;;6.00;5.00;;;;;;;;4687176;30;45462;-93
2021/08/01 02:44:57;;;;;;;;;7.00;7.00;;;;;;;;4702515;30;45556;-93
2021/08/01 02:47:27;;;;;;;;;7.75;6.00;;;;;;;;4709043;30;45518;-92
2021/08/01 02:49:54;;;;;;;;;3.50;3.50;;;;;;;;4701413;30;45526;-92
2021/08/01 02:52:21;;;;;;;;;7.00;5.00;;;;;;;;4704216;30;45594;-93
2021/08/01 02:54:48;;;;;;;;;1.00;1.00;;;;;;;;4701784;30;47586;-93
2021/08/01 02:57:17;;;;;;;;;5.25;5.00;;;;;;;;4712054;30;45263;-91
2021/08/01 02:59:43;;;;;;;;;6.50;6.00;;;;;;;;4712552;30;45535;-90
2021/08/01 03:02:09;;;;;;;;;6.00;6.00;;;;;;;;4713179;30;44827;-91
2021/08/01 03:04:38;;;;;;;;;7.50;6.00;;;;;;;;4707141;30;46329;-93
2021/08/01 03:07:05;;;;;;;;;6.00;6.00;;;;;;;;4707482;30;45697;-92
2021/08/01 03:09:30;;;;;;;;;7.75;7.00;;;;;;;;4716279;30;45418;-92
2021/08/01 03:12:06;;;;;;;;;7.25;6.00;;;;;;;;4696388;30;45337;-91
2021/08/01 03:14:31;;;;;;;;;8.25;6.75;;;;;;;;4709660;30;45566;-92
2021/08/01 03:16:56;;;;;;;;;8.33;6.67;;;;;;;;4706513;30;45418;-93
2021/08/01 03:19:21;;;;;;;;;6.75;4.25;;;;;;;;4697241;30;45547;-93
2021/08/01 03:21:47;;;;;;;;;7.00;5.00;;;;;;;;4712533;30;45389;-92
2021/08/01 03:24:12;;;;;;;;;6.50;5.00;;;;;;;;5135692;24;46381;-92
2021/08/01 03:26:37;;;;;;;;;5.75;5.50;;;;;;;;4666464;30;46267;-92
2021/08/01 03:29:02;;;;;;;;;4.50;3.50;;;;;;;;4682372;30;45357;-93
2021/08/01 03:31:28;;;;;;;;;6.00;4.25;;;;;;;;4681371;30;45486;-92
2021/08/01 03:33:53;;;;;;;;;4.00;4.00;;;;;;;;4682564;30;45495;-93
2021/08/01 03:36:18;;;;;;;;;4.50;4.00;;;;;;;;4667177;30;45438;-92
2021/08/01 03:38:44;;;;;;;;;4.00;4.00;;;;;;;;4667183;30;45413;-93
2021/08/01 03:41:09;;;;;;;;;4.25;4.25;;;;;;;;4669568;30;45377;-93
2021/08/01 03:43:34;;;;;;;;;6.00;4.00;;;;;;;;4684988;30;46704;-92
2021/08/01 03:46:00;;;;;;;;;6.00;6.00;;;;;;;;4684893;30;45118;-92
2021/08/01 03:48:25;;;;;;;;;4.75;4.75;;;;;;;;4686030;30;45360;-92
2021/08/01 03:50:50;;;;;;;;;5.67;3.67;;;;;;;;4668961;30;45389;-93
2021/08/01 03:53:15;;;;;;;;;4.00;4.00;;;;;;;;4685742;30;45442;-92
2021/08/01 03:55:41;;;;;;;;;8.00;4.25;;;;;;;;4670162;30;45377;-92
2021/08/01 03:58:06;;;;;;;;;5.25;4.75;;;;;;;;4673541;30;45554;-94
2021/08/01 04:00:34;;;;;;;;;4.75;4.75;;;;;;;;4670238;30;44986;-93
2021/08/01 04:02:59;;;;;;;;;9.25;5.00;;;;;;;;4668799;30;47486;-93
2021/08/01 04:05:24;;;;;;;;;5.33;5.33;;;;;;;;4685556;30;45583;-93
2021/08/01 04:07:50;;;;;;;;;5.00;4.00;;;;;;;;4671375;30;45715;-93
2021/08/01 04:10:15;;;;;;;;;6.00;4.50;;;;;;;;4669247;30;45654;-93
2021/08/01 04:12:43;;;;;;;;;7.25;5.75;;;;;;;;4685098;30;45206;-93
2021/08/01 04:15:11;;;;;;;;;6.00;5.50;;;;;;;;4672130;30;45670;-93
2021/08/01 04:17:36;;;;;;;;;4.50;3.25;;;;;;;;4689010;30;45551;-93
2021/08/01 04:20:02;;;;;;;;;5.33;5.33;;;;;;;;4669088;30;45279;-92
2021/08/01 04:22:27;;;;;;;;;5.50;4.00;;;;;;;;4671472;30;48441;-90
2021/08/01 04:24:53;;;;;;;;;5.00;3.25;;;;;;;;4670578;30;45444;-91
2021/08/01 04:27:18;;;;;;;;;5.50;4.00;;;;;;;;4686127;30;45346;-92
2021/08/01 04:29:48;;;;;;;;;6.00;3.25;;;;;;;;4664078;30;45325;-93
2021/08/01 04:32:16;;;;;;;;;4.00;4.00;;;;;;;;4684218;30;45495;-94
2021/08/01 04:34:41;;;;;;;;;6.75;4.25;;;;;;;;4686383;30;45504;-90
2021/08/01 04:37:06;;;;;;;;;3.25;3.25;;;;;;;;4670348;30;45390;-92
2021/08/01 04:39:32;;;;;;;;;3.00;3.00;;;;;;;;4690683;30;45450;-93
2021/08/01 04:41:58;;;;;;;;;4.00;4.00;;;;;;;;4669097;30;46704;-93
2021/08/01 04:44:23;;;;;;;;;4.00;4.00;;;;;;;;4670324;30;45760;-93
2021/08/01 04:46:48;;;;;;;;;8.00;6.00;;;;;;;;4670860;30;45040;-93
2021/08/01 04:49:14;;;;;;;;;3.67;3.67;;;;;;;;4671189;30;45830;-92
2021/08/01 04:51:39;;;;;;;;;7.00;6.00;;;;;;;;4685556;30;45500;-93
2021/08/01 04:54:04;;;;;;;;;6.00;4.67;;;;;;;;4669108;30;46104;-91
2021/08/01 04:56:32;;;;;;;;;6.75;5.50;;;;;;;;4686151;30;45511;-93
2021/08/01 04:58:57;;;;;;;;;4.00;4.00;;;;;;;;4668356;30;45610;-93
2021/08/01 05:01:23;;;;;;;;;5.00;4.75;;;;;;;;4686302;30;45621;-93
2021/08/01 05:03:48;;;;;;;;;6.00;4.75;;;;;;;;4668565;30;45603;-91
2021/08/01 05:06:13;;;;;;;;;6.50;6.25;;;;;;;;4683679;30;45559;-93
2021/08/01 05:08:38;;;;;;;;;4.75;4.75;;;;;;;;4683207;30;45359;-93
2021/08/01 05:11:04;;;;;;;;;6.67;5.00;;;;;;;;4679011;30;45403;-92
2021/08/01 05:13:29;;;;;;;;;4.00;4.00;;;;;;;;4847250;24;45805;-93
2021/08/01 05:15:55;;;;;;;;;6.25;4.00;;;;;;;;4690538;30;45333;-93
2021/08/01 05:18:20;;;;;;;;;5.50;5.00;;;;;;;;4678832;30;45594;-91
2021/08/01 05:20:46;;;;;;;;;5.25;4.75;;;;;;;;4686932;30;45863;-93
2021/08/01 05:23:11;;;;;;;;;5.00;5.00;;;;;;;;4671795;30;45692;-93
2021/08/01 05:25:37;;;;;;;;;6.25;5.25;;;;;;;;4678054;30;45447;-94
2021/08/01 05:28:02;;;;;;;;;6.25;6.00;;;;;;;;4681402;30;45470;-92
2021/08/01 05:30:28;;;;;;;;;5.00;4.75;;;;;;;;4664997;30;47285;-94
2021/08/01 05:32:53;;;;;;;;;7.75;5.25;;;;;;;;4666910;30;45516;-94
2021/08/01 05:35:18;;;;;;;;;6.25;6.25;;;;;;;;4685190;30;45423;-93
2021/08/01 05:37:43;;;;;;;;;4.00;4.00;;;;;;;;4698292;30;45551;-93
2021/08/01 05:40:10;;;;;;;;;8.50;5.00;;;;;;;;4684232;30;47193;-91
2021/08/01 05:42:36;;;;;;;;;8.00;5.00;;;;;;;;4705512;30;45371;-93
2021/08/01 05:45:01;;;;;;;;;5.00;5.00;;;;;;;;4702124;30;45211;-93
2021/08/01 05:47:26;;;;;;;;;3.50;3.00;;;;;;;;4688593;30;44844;-92
2021/08/01 05:49:52;;;;;;;;;3.25;3.00;;;;;;;;4693674;30;45348;-94
2021/08/01 05:52:17;;;;;;;;;6.00;4.50;;;;;;;;4701798;30;45321;-92
2021/08/01 05:54:42;;;;;;;;;6.75;5.00;;;;;;;;4683572;30;45623;-93
2021/08/01 05:57:08;;;;;;;;;2.75;2.75;;;;;;;;4668814;30;45499;-93
2021/08/01 05:59:33;;;;;;;;;5.00;4.00;;;;;;;;4657029;30;47843;-94
2021/08/01 06:01:58;;;;;;;;;4.00;4.00;;;;;;;;4668926;30;46018;-92
2021/08/01 06:04:24;;;;;;;;;7.25;3.50;;;;;;;;4668157;30;47589;-91
2021/08/01 06:06:49;;;;;;;;;4.25;3.00;;;;;;;;4666762;30;45287;-91
2021/08/01 06:12:10;;;;;;;;;3.75;3.75;;;;;;;;4681652;30;45515;-92
2021/08/01 06:14:35;;;;;;;;;2.75;2.50;;;;;;;;4678537;30;45462;-94
2021/08/01 06:17:01;;;;;;;;;4.00;3.00;;;;;;;;4676408;30;45314;-94
2021/08/01 06:19:26;;;;;;;;;5.00;3.25;;;;;;;;4677701;30;47287;-92
2021/08/01 06:21:51;;;;;;;;;3.67;3.00;;;;;;;;4670861;30;45626;-92
2021/08/01 06:24:16;;;;;;;;;2.00;2.00;;;;;;;;4672762;30;45394;-92
2021/08/01 06:26:42;;;;;;;;;3.75;3.00;;;;;;;;4673280;30;45417;-90
2021/08/01 06:29:08;;;;;;;;;5.00;3.00;;;;;;;;4691233;30;45556;-94
2021/08/01 06:31:34;;;;;;;;;4.00;3.00;;;;;;;;4673470;30;45771;-93
2021/08/01 06:34:02;;;;;;;;;3.25;2.00;;;;;;;;4679878;30;45461;-95
2021/08/01 06:36:28;;;;;;;;;4.75;3.75;;;;;;;;4680103;30;45645;-95
2021/08/01 06:38:55;;;;;;;;;2.50;2.50;;;;;;;;4683203;30;45584;-94
2021/08/01 06:41:24;;;;;;;;;3.00;3.00;;;;;;;;4667215;30;45416;-93
2021/08/01 06:43:52;;;;;;;;;2.50;2.00;;;;;;;;4687015;30;45545;-92
2021/08/01 06:46:17;;;;;;;;;1.00;1.00;;;;;;;;4693821;30;45543;-93
2021/08/01 06:48:45;;;;;;;;;3.75;3.00;;;;;;;;4654643;30;47826;-94
2021/08/01 06:51:10;;;;;;;;;3.00;3.00;;;;;;;;4688439;30;45261;-92
2021/08/01 06:53:38;;;;;;;;;5.25;3.00;;;;;;;;4687592;30;45204;-93
2021/08/01 06:56:06;;;;;;;;;3.75;2.00;;;;;;;;4682302;30;45456;-94
2021/08/01 06:58:31;;;;;;;;;4.00;2.00;;;;;;;;4679729;30;45758;-92
2021/08/01 07:00:57;;;;;;;;;2.00;2.00;;;;;;;;4670755;30;45437;-91
2021/08/01 07:03:24;;;;;;;;;2.75;2.75;;;;;;;;4683891;30;45314;-93
2021/08/01 07:05:50;;;;;;;;;3.00;3.00;;;;;;;;4679130;30;44967;-93
2021/08/01 07:08:15;;;;;;;;;2.00;2.00;;;;;;;;4673192;30;47027;-92
2021/08/01 07:10:40;;;;;;;;;2.25;2.00;;;;;;;;4665464;30;45548;-92
2021/08/01 07:13:07;;;;;;;;;2.00;2.00;;;;;;;;4691283;30;45250;-93
2021/08/01 07:15:32;;;;;;;;;3.50;2.00;;;;;;;;4671321;30;45557;-94
2021/08/01 07:17:58;;;;;;;;;1.00;1.00;;;;;;;;4666286;30;46984;-93
2021/08/01 07:20:24;;;;;;;;;2.25;1.50;;;;;;;;4671277;30;45540;-93
2021/08/01 07:22:49;;;;;;;;;1.50;1.50;;;;;;;;4670078;30;45913;-92
2021/08/01 07:25:15;;;;;;;;;4.75;2.00;;;;;;;;4667381;30;45640;-94
2021/08/01 07:27:40;;;;;;;;;2.00;2.00;;;;;;;;4680326;30;45574;-93
2021/08/01 07:30:06;;;;;;;;;3.00;1.75;;;;;;;;4669194;30;45548;-93
2021/08/01 07:32:31;;;;;;;;;3.75;2.00;;;;;;;;4679281;30;45567;-93
2021/08/01 07:34:56;;;;;;;;;1.00;1.00;;;;;;;;4680299;30;45609;-91
2021/08/01 07:37:22;;;;;;;;;2.00;2.00;;;;;;;;4675509;30;46448;-91
2021/08/01 07:39:47;;;;;;;;;1.50;1.50;;;;;;;;4667766;30;45560;-92
2021/08/01 07:42:12;;;;;;;;;2.00;2.00;;;;;;;;4676927;30;45395;-93
2021/08/01 07:44:49;;;;;;;;;3.50;2.00;;;;;;;;4670813;30;45577;-93
2021/08/01 07:47:18;;;;;;;;;3.50;2.75;;;;;;;;4677731;30;45616;-93
2021/08/01 07:49:44;;;;;;;;;3.25;2.50;;;;;;;;4676085;30;45597;-94
2021/08/01 07:52:09;;;;;;;;;3.00;2.25;;;;;;;;4661765;30;45583;-92
2021/08/01 07:54:34;;;;;;;;;2.75;2.75;;;;;;;;4665039;30;45608;-92
2021/08/01 07:57:00;;;;;;;;;4.00;4.00;;;;;;;;4677346;30;45469;-94
2021/08/01 07:59:25;;;;;;;;;5.00;2.75;;;;;;;;4662392;30;45638;-93
2021/08/01 08:01:50;;;;;;;;;2.00;2.00;;;;;;;;4671470;30;45509;-93
2021/08/01 08:04:15;;;;;;;;;2.75;2.00;;;;;;;;4682948;30;45400;-92
2021/08/01 08:06:41;;;;;;;;;3.00;2.00;;;;;;;;4676092;30;48362;-90
2021/08/01 08:09:06;;;;;;;;;4.33;3.67;;;;;;;;4683691;30;45436;-93
2021/08/01 08:11:31;;;;;;;;;2.00;2.00;;;;;;;;4678692;30;45333;-94
2021/08/01 08:13:57;;;;;;;;;2.25;2.00;;;;;;;;4668925;30;45427;-92
2021/08/01 08:16:22;;;;;;;;;2.25;2.25;;;;;;;;4667210;30;47163;-93
2021/08/01 08:18:50;;;;;;;;;6.00;3.00;;;;;;;;4667178;30;45562;-93
2021/08/01 08:21:26;;;;;;;;;5.00;3.00;;;;;;;;4687822;30;46002;-94
2021/08/01 08:23:52;;;;;;;;;3.50;3.50;;;;;;;;4668385;30;45437;-91
2021/08/01 08:26:17;;;;;;;;;2.00;2.00;;;;;;;;4679933;30;45521;-94
2021/08/01 08:28:43;;;;;;;;;2.75;1.50;;;;;;;;4680845;30;45498;-91
2021/08/01 08:31:11;;;;;;;;;2.00;2.00;;;;;;;;4675712;30;44811;-93
2021/08/01 08:33:38;;;;;;;;;2.00;2.00;;;;;;;;4676446;30;45412;-90
2021/08/01 08:36:03;;;;;;;;;6.25;1.00;;;;;;;;4682825;30;46244;-92
2021/08/01 08:38:28;;;;;;;;;1.50;1.50;;;;;;;;4668937;30;45475;-93
2021/08/01 08:40:53;;;;;;;;;4.00;3.00;;;;;;;;4668336;30;45685;-93
2021/08/01 08:43:19;;;;;;;;;2.33;2.00;;;;;;;;4687167;30;45553;-92
2021/08/01 08:45:45;;;;;;;;;2.00;2.00;;;;;;;;4670499;30;47276;-92
2021/08/01 08:48:15;;;;;;;;;1.75;1.75;;;;;;;;4679253;30;45444;-91
2021/08/01 08:50:40;;;;;;;;;2.00;2.00;;;;;;;;4685399;30;45536;-92
2021/08/01 08:53:06;;;;;;;;;2.75;2.00;;;;;;;;4687715;30;45550;-92
2021/08/01 08:55:36;;;;;;;;;2.50;2.25;;;;;;;;4682562;30;45497;-94
2021/08/01 08:58:02;;;;;;;;;3.25;2.50;;;;;;;;4666640;30;45493;-93
2021/08/01 09:00:28;;;;;;;;;4.00;3.00;;;;;;;;4693613;30;45512;-92
2021/08/01 09:02:54;;;;;;;;;2.25;2.00;;;;;;;;4670024;30;45748;-93
2021/08/01 09:05:19;;;;;;;;;2.25;2.25;;;;;;;;4673023;30;45603;-93
2021/08/01 09:07:44;;;;;;;;;2.75;2.00;;;;;;;;4677065;30;45479;-93
2021/08/01 09:10:18;;;;;;;;;5.00;2.00;;;;;;;;4669723;30;45369;-94
2021/08/01 09:12:44;;;;;;;;;2.00;1.00;;;;;;;;4679179;30;45491;-93
2021/08/01 09:15:12;;;;;;;;;1.00;1.00;;;;;;;;4667660;30;48218;-93
2021/08/01 09:17:38;;;;;;;;;3.00;2.00;;;;;;;;4667126;30;45456;-94
2021/08/01 09:20:21;;;;;;;;;2.50;2.00;;;;;;;;4669355;30;45602;-93
2021/08/01 09:22:59;;;;;;;;;4.00;3.00;;;;;;;;4666719;30;45402;-92
2021/08/01 09:25:27;;;;;;;;;3.00;3.00;;;;;;;;4685134;30;45556;-93
2021/08/01 09:27:52;;;;;;;;;1.75;1.75;;;;;;;;4667979;30;45490;-92
2021/08/01 09:30:18;;;;;;;;;2.00;2.00;;;;;;;;4668963;30;45532;-92
2021/08/01 09:32:49;;;;;;;;;4.67;1.67;;;;;;;;4677055;30;44838;-94
2021/08/01 09:35:15;;;;;;;;;1.50;1.50;;;;;;;;4678168;30;45302;-94
2021/08/01 09:37:41;;;;;;;;;2.00;2.00;;;;;;;;4671859;30;45349;-91
2021/08/01 09:45:28;;;;;;;;;3.75;3.00;;;;;;;;5368534;24;45720;-92
2021/08/01 10:01:57;;;;;;;;;4.75;2.00;;;;;;;;5332871;24;46367;-79
2021/08/01 10:04:23;;;;;;;;;2.75;2.75;;;;;;;;4733727;24;46315;-80
2021/08/01 11:24:07;;;;;;;;;0.25;0.25;;;;;;;;4644476;30;46153;-77
2021/08/01 11:26:43;;;;;;;;;;;;;;;;;;;;;
2021/08/01 11:29:37;;;;;;;;;0.75;0.00;;;;;;;;5337623;24;71413;-78
2021/08/01 11:32:11;;;;;;;;;1.00;1.00;;;;;;;;4666510;30;46779;-79
2021/08/01 11:44:59;;;;;;;;;0.00;0.00;;;;;;;;4687235;30;45546;-80
2021/08/01 11:48:26;;;;;;;;;1.25;0.75;;;;;;;;4697048;30;46199;-80
2021/08/01 11:53:09;;;;;;;;;1.00;0.00;;;;;;;;4914074;24;50843;-91
2021/08/01 11:55:34;;;;;;;;;0.00;0.00;;;;;;;;4685633;30;45856;-93
2021/08/01 12:01:01;;;;;;;;;0.00;0.00;;;;;;;;4292240;24;45617;-83
2021/08/01 12:09:55;;;;;;;;;0.00;0.00;;;;;;;;4600604;30;45725;-84
2021/08/01 12:12:29;;;;;;;;;0.25;0.25;;;;;;;;4608208;30;45852;-82
2021/08/01 12:14:55;;;;;;;;;0.25;0.00;;;;;;;;4607160;30;48544;-82
2021/08/01 12:17:34;;;;;;;;;2.00;1.00;;;;;;;;4607324;30;45720;-83
2021/08/01 12:26:41;;;;;;;;;0.75;0.75;;;;;;;;4532672;31;45607;-83
2021/08/01 12:29:08;;;;;;;;;0.00;0.00;;;;;;;;4668293;25;45827;-82
2021/08/01 12:31:40;;;;;;;;;2.00;0.00;;;;;;;;4695148;30;45588;-82
2021/08/01 12:34:08;;;;;;;;;2.00;0.25;;;;;;;;4696616;30;46054;-82
2021/08/01 12:36:52;;;;;;;;;2.25;0.00;;;;;;;;4693128;30;46233;-82
2021/08/01 12:39:52;;;;;;;;;0.00;0.00;;;;;;;;4679061;30;45881;-82
2021/08/01 12:48:06;;;;;;;;;0.25;0.25;;;;;;;;4668815;30;45606;-83
2021/08/01 12:50:55;;;;;;;;;0.00;0.00;;;;;;;;4662137;30;45671;-82
2021/08/01 12:53:23;;;;;;;;;0.25;0.25;;;;;;;;4603932;30;45681;-82
2021/08/01 12:55:55;;;;;;;;;5.00;1.00;;;;;;;;4590063;30;46476;-83
2021/08/01 12:59:21;;;;;;;;;0.75;0.75;;;;;;;;4599567;30;48308;-82
2021/08/01 13:04:41;;;;;;;;;2.00;2.00;;;;;;;;4557744;30;45614;-83
2021/08/01 13:07:38;;;;;;;;;0.50;0.50;;;;;;;;4557646;30;45546;-83
2021/08/01 13:10:24;;;;;;;;;0.50;0.50;;;;;;;;4560180;30;47509;-82
2021/08/01 13:16:13;;;;;;;;;0.50;0.50;;;;;;;;4526001;31;45311;-83
2021/08/01 13:22:03;;;;;;;;;2.00;0.75;;;;;;;;4443762;31;45889;-84
2021/08/01 13:24:31;;;;;;;;;2.00;1.00;;;;;;;;4448829;31;45619;-88
2021/08/01 13:27:01;;;;;;;;;1.00;1.00;;;;;;;;4441336;31;45504;-83
2021/08/01 13:32:25;;;;;;;;;2.00;1.00;;;;;;;;4429549;31;54296;-82
2021/08/01 13:41:23;;;;;;;;;1.00;1.00;;;;;;;;4435352;31;45892;-82
2021/08/01 13:47:23;;;;;;;;;0.75;0.75;;;;;;;;4456214;31;45543;-82
2021/08/01 13:53:15;;;;;;;;;1.00;1.00;;;;;;;;4400618;32;45629;-84
2021/08/01 13:58:46;;;;;;;;;2.00;1.00;;;;;;;;4404144;32;45601;-82
2021/08/01 14:04:19;;;;;;;;;1.00;1.00;;;;;;;;4405102;32;45738;-83
2021/08/01 14:07:04;;;;;;;;;1.00;1.00;;;;;;;;4398941;32;47303;-81
2021/08/01 14:09:30;;;;;;;;;2.00;0.75;;;;;;;;4397593;32;45589;-83
2021/08/01 14:12:17;;;;;;;;;1.00;1.00;;;;;;;;4395222;32;45623;-82
2021/08/01 14:14:42;;;;;;;;;1.00;1.00;;;;;;;;4399686;32;46121;-82
2021/08/01 14:17:08;;;;;;;;;1.00;0.00;;;;;;;;4428637;31;45474;-83
2021/08/01 14:19:34;;;;;;;;;1.00;1.00;;;;;;;;4473553;31;45689;-83
2021/08/01 14:22:03;;;;;;;;;2.00;0.50;;;;;;;;4473389;31;45889;-82
2021/08/01 14:24:28;;;;;;;;;4.00;1.00;;;;;;;;4475286;31;45514;-83
2021/08/01 14:26:53;;;;;;;;;1.00;1.00;;;;;;;;4481706;31;46642;-82
2021/08/01 14:29:22;;;;;;;;;0.00;0.00;;;;;;;;4540090;31;45378;-83
2021/08/01 14:31:52;;;;;;;;;0.00;0.00;;;;;;;;4527284;31;45715;-82
2021/08/01 14:34:43;;;;;;;;;0.25;0.25;;;;;;;;4536538;31;45572;-82
2021/08/01 14:37:34;;;;;;;;;1.00;1.00;;;;;;;;4519930;31;45719;-82
2021/08/01 14:40:06;;;;;;;;;0.00;0.00;;;;;;;;4474561;31;51539;-82
2021/08/01 14:45:40;;;;;;;;;3.00;0.00;;;;;;;;4486933;31;45700;-83
2021/08/01 14:50:46;;;;;;;;;0.00;0.00;;;;;;;;4697282;30;45819;-83
2021/08/01 14:53:23;;;;;;;;;1.00;1.00;;;;;;;;4709140;30;45499;-82
2021/08/01 14:56:01;;;;;;;;;1.75;0.00;;;;;;;;4691087;30;45618;-82
2021/08/01 14:58:26;;;;;;;;;2.50;1.25;;;;;;;;4705856;30;51200;-84
2021/08/01 15:04:12;;;;;;;;;2.00;1.00;;;;;;;;4666067;24;1230174;-89
2021/08/01 15:06:41;;;;;;;;;2.00;1.00;;;;;;;;4690940;30;45538;-83
2021/08/01 15:09:13;;;;;;;;;0.50;0.00;;;;;;;;4675154;30;47383;-82
2021/08/01 15:11:48;;;;;;;;;2.00;0.75;;;;;;;;4688992;30;48792;-83
2021/08/01 15:14:37;;;;;;;;;0.25;0.25;;;;;;;;4664706;30;45753;-82
2021/08/01 15:17:10;;;;;;;;;1.25;1.00;;;;;;;;4676371;30;45558;-85
2021/08/01 15:22:54;;;;;;;;;1.00;1.00;;;;;;;;5265286;24;46727;-83
2021/08/01 15:28:27;;;;;;;;;1.00;0.75;;;;;;;;4671479;30;45526;-81
2021/08/01 15:33:58;;;;;;;;;0.00;0.00;;;;;;;;4705750;30;45446;-83
2021/08/01 15:42:23;;;;;;;;;0.75;0.75;;;;;;;;4861172;24;46269;-80
2021/08/01 15:44:51;;;;;;;;;1.00;0.00;;;;;;;;4681304;30;45419;-81
2021/08/01 15:47:19;;;;;;;;;1.50;1.00;;;;;;;;4681309;30;45565;-81
2021/08/01 15:49:44;;;;;;;;;1.00;1.00;;;;;;;;4677538;30;45528;-81
2021/08/01 16:00:29;;;;;;;;;0.75;0.75;;;;;;;;4964548;24;45608;-84
2021/08/01 16:06:42;;;;;;;;;0.00;0.00;;;;;;;;4645381;30;46731;-82
2021/08/01 16:09:37;;;;;;;;;0.75;0.75;;;;;;;;4642571;30;46875;-82
2021/08/01 16:12:07;;;;;;;;;1.00;1.00;;;;;;;;4643533;30;45622;-83
2021/08/01 16:14:37;;;;;;;;;0.75;0.75;;;;;;;;4640147;30;45689;-82
2021/08/01 16:17:10;;;;;;;;;0.75;0.75;;;;;;;;4647197;30;45678;-82
2021/08/01 16:20:02;;;;;;;;;1.00;1.00;;;;;;;;4631658;30;45443;-82
2021/08/01 16:22:37;;;;;;;;;0.50;0.50;;;;;;;;4639989;30;45586;-82
2021/08/01 16:25:17;;;;;;;;;1.00;1.00;;;;;;;;4639753;30;47074;-82
2021/08/01 16:31:07;;;;;;;;;1.00;1.00;;;;;;;;4592651;30;46200;-84
2021/08/01 16:36:50;;;;;;;;;0.50;0.50;;;;;;;;4581645;30;45535;-86
2021/08/01 16:39:15;;;;;;;;;0.00;0.00;;;;;;;;4608876;30;45672;-84
2021/08/01 16:48:45;;;;;;;;;0.50;0.50;;;;;;;;4524757;31;45789;-83
2021/08/01 16:51:46;;;;;;;;;0.25;0.25;;;;;;;;4523744;31;45648;-82
2021/08/01 17:03:53;;;;;;;;;0.00;0.00;;;;;;;;4479680;31;45447;-83
2021/08/01 17:06:58;;;;;;;;;1.00;1.00;;;;;;;;4480032;31;45485;-83
2021/08/01 17:12:26;;;;;;;;;0.50;0.50;;;;;;;;4491195;31;45849;-84
2021/08/01 17:15:20;;;;;;;;;1.00;1.00;;;;;;;;4462650;31;45501;-84
2021/08/01 17:17:49;;;;;;;;;0.50;0.50;;;;;;;;4422018;31;45599;-84
2021/08/01 17:20:14;;;;;;;;;0.50;0.00;;;;;;;;4498212;31;48343;-83
2021/08/01 17:22:44;;;;;;;;;1.00;1.00;;;;;;;;4503796;31;48545;-83
2021/08/01 17:25:34;;;;;;;;;0.75;0.75;;;;;;;;4511624;31;45494;-83
2021/08/01 17:28:00;;;;;;;;;0.00;0.00;;;;;;;;4499986;31;48340;-84
2021/08/01 17:34:12;;;;;;;;;0.25;0.00;;;;;;;;4494808;31;46334;-84
2021/08/01 17:39:45;;;;;;;;;2.50;1.00;;;;;;;;4497588;31;45640;-83
2021/08/01 17:42:11;;;;;;;;;2.75;0.75;;;;;;;;4498471;31;45561;-82
2021/08/01 17:44:43;;;;;;;;;1.75;0.75;;;;;;;;4478760;31;46443;-83
2021/08/01 17:47:15;;;;;;;;;1.00;1.00;;;;;;;;4749116;25;45403;-81
2021/08/01 17:49:50;;;;;;;;;4.00;2.00;;;;;;;;4682310;30;49424;-82
2021/08/01 17:52:15;;;;;;;;;1.00;1.00;;;;;;;;4671570;30;45570;-80
2021/08/01 17:54:44;;;;;;;;;2.50;2.25;;;;;;;;4674616;30;46460;-79
2021/08/01 17:57:10;;;;;;;;;1.00;1.00;;;;;;;;4653667;30;45639;-80
2021/08/01 18:02:41;;;;;;;;;1.75;1.00;;;;;;;;4657669;30;45430;-80
2021/08/01 18:05:11;;;;;;;;;1.50;1.00;;;;;;;;4663217;30;48311;-80
2021/08/01 18:07:42;;;;;;;;;1.00;1.00;;;;;;;;4670705;30;45752;-80
2021/08/01 18:10:08;;;;;;;;;2.00;2.00;;;;;;;;4653611;30;45406;-80
2021/08/01 18:12:43;;;;;;;;;1.00;1.00;;;;;;;;4677752;30;45910;-84
2021/08/01 18:15:27;;;;;;;;;1.00;0.00;;;;;;;;4669581;30;47067;-79
2021/08/01 18:17:52;;;;;;;;;1.00;1.00;;;;;;;;4670241;30;45436;-79
2021/08/01 18:20:18;;;;;;;;;3.00;1.25;;;;;;;;4659830;30;46068;-79
2021/08/01 18:22:45;;;;;;;;;2.75;2.00;;;;;;;;4669672;30;45753;-79
2021/08/01 18:25:10;;;;;;;;;3.00;1.25;;;;;;;;4670017;30;45494;-78
2021/08/01 18:27:35;;;;;;;;;1.00;1.00;;;;;;;;4673405;30;45609;-80
2021/08/01 18:31:15;;;;;;;;;0.25;0.25;;;;;;;;4654602;30;45535;-80
2021/08/01 18:33:22;;;;;;;;;1.00;1.00;;;;;;;;4648243;30;52960;-80
2021/08/01 18:35:49;;;;;;;;;1.00;1.00;;;;;;;;4669581;30;46833;-79
2021/08/01 18:38:16;;;;;;;;;1.25;1.25;;;;;;;;4674781;30;45789;-79
2021/08/01 18:40:52;;;;;;;;;1.00;1.00;;;;;;;;4651686;30;45460;-80
2021/08/01 18:43:20;;;;;;;;;1.00;1.00;;;;;;;;4669742;30;45604;-80
2021/08/01 18:46:30;;;;;;;;;0.50;0.50;;;;;;;;4676687;30;45753;-81
2021/08/01 18:48:55;;;;;;;;;1.75;1.75;;;;;;;;4667271;30;45518;-79
2021/08/01 18:51:27;;;;;;;;;3.50;2.25;;;;;;;;4674171;30;45603;-80
2021/08/01 18:54:15;;;;;;;;;1.00;1.00;;;;;;;;4667956;30;45709;-80
2021/08/01 18:56:49;;;;;;;;;3.50;1.75;;;;;;;;4647001;30;47365;-79